ENHE

Heidrun Airport

Norway
METAR ENHE 181550Z 28022KT 9999 SCT032 06/00 Q1012 W///S6
Observed Flight Rules
Dec-18 @ 15:50 UTC (49 minutes ago) Visual Flight Rules
Wind Visibility Clouds
280° at 22 knots 10,000+ meters
  • Scattered at 3,200' AGL
Temperatures Readings
Current 6°C / 43°F
Dewpoint 0°C / 32°F
Humidity 66%
Altimeter 29.88" Hg
Pressure 1012 hPa
Elevation 1
METAR ENHE 181550Z 28022KT 9999 SCT032 06/00 Q1012 W///S6
Observed Flight Rules
Dec-18 @ 15:50 UTC
(49 minutes ago)
VFR
Wind Visibility
280° at 22 knots 10,000+ meters
Clouds
  • Scattered at 3,200' AGL
Temperature Dewpoint
6°C / 43°F 0°C / 32°F
Humidity Altimeter Pressure
66% 29.88" Hg 1012 hPa